Time;durP1;ratioP1;P1;durP2;ratioP2;P2;SDS_P1;SDS_P2;PMS_P1;PMS_P2;Temp;Humidity;BMP_temperature;BMP_pressure;BME280_temperature;BME280_humidity;BME280_pressure;Samples;Min_cycle;Max_cycle;Signal;HPM_P1;HPM_P2
2021/12/31 00:01:42;;;;;;;5.07;3.60;;;13.60;99.90;;;;;;5069952;28;20177;-45
2021/12/31 00:04:07;;;;;;;5.20;2.97;;;13.50;99.90;;;;;;5067126;28;20209;-45
2021/12/31 00:06:36;;;;;;;4.13;3.73;;;13.50;99.90;;;;;;5064584;28;20280;-45
2021/12/31 00:09:03;;;;;;;5.43;3.10;;;13.60;99.90;;;;;;5069174;28;20173;-46
2021/12/31 00:11:28;;;;;;;4.90;3.00;;;13.60;99.90;;;;;;5069868;28;20913;-46
2021/12/31 00:13:54;;;;;;;4.10;3.10;;;13.50;99.90;;;;;;5069267;28;20492;-50
2021/12/31 00:16:20;;;;;;;4.23;3.07;;;13.50;99.90;;;;;;5070180;28;20667;-46
2021/12/31 00:18:45;;;;;;;3.07;2.77;;;13.60;99.90;;;;;;5077034;28;20188;-45
2021/12/31 00:21:11;;;;;;;4.80;2.77;;;13.50;99.90;;;;;;5085405;28;20218;-48
2021/12/31 00:23:37;;;;;;;5.87;2.90;;;13.60;99.90;;;;;;5055691;28;20255;-45
2021/12/31 00:26:02;;;;;;;5.00;2.50;;;13.60;99.90;;;;;;5069841;28;20197;-46
2021/12/31 00:28:28;;;;;;;3.20;2.50;;;13.60;99.90;;;;;;5069401;28;20215;-48
2021/12/31 00:30:55;;;;;;;5.73;2.70;;;13.60;99.90;;;;;;5069762;28;20188;-45
2021/12/31 00:33:22;;;;;;;5.30;2.93;;;13.60;99.90;;;;;;5069024;28;20195;-49
2021/12/31 00:35:48;;;;;;;3.20;2.30;;;13.50;99.90;;;;;;5070027;28;20424;-47
2021/12/31 00:38:15;;;;;;;4.30;2.90;;;13.60;99.90;;;;;;5057693;28;20435;-45
2021/12/31 00:40:40;;;;;;;5.10;2.47;;;13.60;99.90;;;;;;5063479;28;20552;-45
2021/12/31 00:43:06;;;;;;;4.53;2.30;;;13.60;99.90;;;;;;5068584;28;20955;-48
2021/12/31 00:45:36;;;;;;;3.80;2.30;;;13.60;99.90;;;;;;5069707;28;20251;-48
2021/12/31 00:48:03;;;;;;;3.70;1.87;;;13.60;99.90;;;;;;5069335;28;20941;-46
2021/12/31 00:50:29;;;;;;;5.57;2.30;;;13.70;99.90;;;;;;5069489;28;20415;-48
2021/12/31 00:52:54;;;;;;;6.07;2.90;;;13.70;99.90;;;;;;5056531;28;20455;-45
2021/12/31 00:55:20;;;;;;;5.60;2.40;;;13.60;99.90;;;;;;5068270;28;20196;-47
2021/12/31 00:57:47;;;;;;;7.73;2.60;;;13.60;99.90;;;;;;5068926;28;20201;-45
2021/12/31 01:00:15;;;;;;;3.23;2.43;;;13.70;99.90;;;;;;5067649;28;20193;-46
2021/12/31 01:02:43;;;;;;;4.23;2.07;;;13.70;99.90;;;;;;5068688;28;20459;-45
2021/12/31 01:05:10;;;;;;;2.83;2.50;;;13.70;99.90;;;;;;5069010;28;20921;-48
2021/12/31 01:07:35;;;;;;;2.63;2.00;;;13.70;99.90;;;;;;5061258;28;20953;-46
2021/12/31 01:10:02;;;;;;;5.20;1.93;;;13.70;99.90;;;;;;5065104;28;20492;-46
2021/12/31 01:12:28;;;;;;;3.80;2.23;;;13.70;99.90;;;;;;5068906;28;20239;-44
2021/12/31 01:15:02;;;;;;;3.33;2.23;;;13.70;99.90;;;;;;5067963;28;20813;-45
2021/12/31 01:20:06;;;;;;;2.80;2.23;;;13.70;99.90;;;;;;5086887;28;20413;-43
2021/12/31 01:22:33;;;;;;;5.50;2.20;;;13.70;99.90;;;;;;5072701;28;20427;-43
2021/12/31 01:25:00;;;;;;;3.57;2.43;;;13.80;99.90;;;;;;5066350;28;20462;-46
2021/12/31 01:27:26;;;;;;;3.50;2.20;;;13.80;99.90;;;;;;5068545;28;20812;-45
2021/12/31 01:29:52;;;;;;;4.07;2.20;;;13.80;99.90;;;;;;5068365;28;20442;-46
2021/12/31 01:32:18;;;;;;;2.93;1.80;;;13.80;99.90;;;;;;5068885;28;20411;-47
2021/12/31 01:34:43;;;;;;;4.10;2.43;;;13.80;99.90;;;;;;5067740;28;20944;-42
2021/12/31 01:37:10;;;;;;;4.37;2.20;;;13.80;99.90;;;;;;5063541;28;20242;-46
2021/12/31 01:39:36;;;;;;;6.10;2.00;;;13.80;99.90;;;;;;5063031;28;20196;-46
2021/12/31 01:42:06;;;;;;;4.23;2.07;;;13.80;99.90;;;;;;5067973;28;20929;-46
2021/12/31 01:44:44;;;;;;;4.23;2.00;;;13.90;99.90;;;;;;5067512;28;20977;-48
2021/12/31 01:47:14;;;;;;;6.20;2.30;;;13.90;99.90;;;;;;5068429;28;20812;-47
2021/12/31 01:49:53;;;;;;;2.93;1.80;;;13.90;99.90;;;;;;5068159;28;20434;-49
2021/12/31 01:52:19;;;;;;;4.17;2.00;;;13.90;99.90;;;;;;5064060;28;20439;-46
2021/12/31 01:54:45;;;;;;;3.50;2.00;;;13.90;99.90;;;;;;5060945;28;20424;-45
2021/12/31 01:57:10;;;;;;;4.50;2.40;;;13.90;99.90;;;;;;5067594;28;20501;-47
2021/12/31 01:59:38;;;;;;;3.83;1.93;;;13.90;99.90;;;;;;5068131;28;20419;-45
2021/12/31 02:02:09;;;;;;;2.40;2.10;;;13.90;99.90;;;;;;5067991;28;20185;-48
2021/12/31 02:04:37;;;;;;;4.10;1.73;;;13.90;99.90;;;;;;5067128;28;20458;-45
2021/12/31 02:07:03;;;;;;;2.60;1.87;;;13.80;99.90;;;;;;5063624;28;20519;-48
2021/12/31 02:09:33;;;;;;;3.73;2.57;;;13.90;99.90;;;;;;5059240;28;20486;-45
2021/12/31 02:11:59;;;;;;;2.53;2.33;;;13.90;99.90;;;;;;5064028;28;20748;-46
2021/12/31 02:14:25;;;;;;;5.70;1.90;;;13.90;99.90;;;;;;5066092;28;20793;-45
2021/12/31 02:16:51;;;;;;;3.37;2.27;;;13.80;99.90;;;;;;5067285;28;20272;-47
2021/12/31 02:19:26;;;;;;;5.40;2.30;;;13.80;99.90;;;;;;5079184;28;20196;-45
2021/12/31 02:21:52;;;;;;;4.00;2.53;;;13.80;99.90;;;;;;5069020;28;20921;-46
2021/12/31 02:24:19;;;;;;;4.33;2.40;;;13.70;99.90;;;;;;5058357;28;20646;-46
2021/12/31 02:26:45;;;;;;;4.37;2.47;;;13.80;99.90;;;;;;5067572;28;20184;-46
2021/12/31 02:29:10;;;;;;;2.30;1.77;;;13.80;99.90;;;;;;5067300;28;20913;-46
2021/12/31 02:31:36;;;;;;;3.00;2.00;;;13.80;99.90;;;;;;5067669;28;20445;-47
2021/12/31 02:34:02;;;;;;;2.50;2.30;;;13.80;99.90;;;;;;5066366;28;20187;-45
2021/12/31 02:36:28;;;;;;;3.23;1.97;;;13.80;99.90;;;;;;5067429;28;20181;-47
2021/12/31 02:38:53;;;;;;;2.27;1.60;;;13.80;99.90;;;;;;5050714;28;20289;-46
2021/12/31 02:41:19;;;;;;;2.60;2.30;;;13.90;99.90;;;;;;5066594;28;20224;-45
2021/12/31 02:43:45;;;;;;;1.97;1.70;;;13.90;99.90;;;;;;5066436;28;20502;-50
2021/12/31 02:46:11;;;;;;;2.43;2.07;;;13.90;99.90;;;;;;5067195;28;20215;-45
2021/12/31 02:48:36;;;;;;;2.30;1.90;;;13.90;99.90;;;;;;5066944;28;20187;-46
2021/12/31 02:51:03;;;;;;;1.50;1.30;;;13.90;99.90;;;;;;5067336;28;20281;-45
2021/12/31 02:53:37;;;;;;;2.57;1.60;;;13.90;99.90;;;;;;5055135;28;20722;-48
2021/12/31 02:56:06;;;;;;;3.73;1.97;;;13.80;99.90;;;;;;5063873;28;20868;-44
2021/12/31 02:58:33;;;;;;;2.20;1.70;;;13.90;99.90;;;;;;5060756;28;20522;-47
2021/12/31 03:00:59;;;;;;;2.33;1.70;;;13.90;99.90;;;;;;5065575;28;20435;-43
2021/12/31 03:03:25;;;;;;;1.90;1.80;;;13.90;99.90;;;;;;5066412;28;20893;-42
2021/12/31 03:05:54;;;;;;;4.17;1.90;;;13.90;99.90;;;;;;5067252;28;20760;-44
2021/12/31 03:08:25;;;;;;;3.07;1.80;;;13.90;99.90;;;;;;5057701;28;20661;-45
2021/12/31 03:10:53;;;;;;;2.13;1.73;;;13.90;99.90;;;;;;5061564;28;20408;-43
2021/12/31 03:13:18;;;;;;;2.67;1.80;;;13.90;99.90;;;;;;5066674;28;20485;-44
2021/12/31 03:15:45;;;;;;;2.20;1.73;;;13.90;99.90;;;;;;5066684;28;21126;-46
2021/12/31 03:18:11;;;;;;;3.30;1.83;;;14.00;99.90;;;;;;5070167;28;20192;-46
2021/12/31 03:20:43;;;;;;;3.07;1.80;;;14.00;99.90;;;;;;5086991;28;20422;-48
2021/12/31 03:23:09;;;;;;;2.07;1.80;;;14.00;99.90;;;;;;5071473;28;20499;-49
2021/12/31 03:25:36;;;;;;;2.60;1.80;;;14.00;99.90;;;;;;5061548;28;20415;-45
2021/12/31 03:28:04;;;;;;;3.33;1.57;;;14.00;99.90;;;;;;5070883;28;20430;-43
2021/12/31 03:30:29;;;;;;;5.87;2.13;;;14.00;99.90;;;;;;5071034;28;20438;-44
2021/12/31 03:32:55;;;;;;;4.20;2.10;;;14.00;99.90;;;;;;5070291;28;20423;-49
2021/12/31 03:35:21;;;;;;;2.17;1.83;;;14.00;99.90;;;;;;5070877;28;20196;-47
2021/12/31 03:37:46;;;;;;;3.47;1.83;;;14.00;99.90;;;;;;5065618;28;20190;-44
2021/12/31 03:40:12;;;;;;;2.13;1.50;;;14.00;99.90;;;;;;5063801;28;20350;-43
2021/12/31 03:42:39;;;;;;;2.87;1.60;;;14.00;99.90;;;;;;5069187;28;20210;-47
2021/12/31 03:45:05;;;;;;;3.13;1.77;;;14.00;99.90;;;;;;5062578;28;20195;-43
2021/12/31 03:47:31;;;;;;;2.97;1.40;;;14.00;99.90;;;;;;5070615;28;20427;-46
2021/12/31 03:49:57;;;;;;;2.17;1.97;;;14.10;99.90;;;;;;5069257;28;20778;-44
2021/12/31 03:52:22;;;;;;;5.30;1.80;;;14.00;99.90;;;;;;5070272;28;20753;-43
2021/12/31 03:54:48;;;;;;;2.50;1.60;;;14.00;99.90;;;;;;5063137;28;20177;-44
2021/12/31 03:57:14;;;;;;;2.70;1.60;;;14.00;99.90;;;;;;5069838;28;20201;-44
2021/12/31 03:59:39;;;;;;;2.70;1.80;;;14.00;99.90;;;;;;5070506;28;20181;-44
2021/12/31 04:02:05;;;;;;;1.77;1.43;;;14.00;99.90;;;;;;5070522;28;20181;-44
2021/12/31 04:04:32;;;;;;;2.07;1.60;;;14.00;99.90;;;;;;5069619;28;20259;-44
2021/12/31 04:06:57;;;;;;;5.27;1.70;;;14.00;99.90;;;;;;5070160;28;20223;-46
2021/12/31 04:09:23;;;;;;;2.47;1.63;;;14.00;99.90;;;;;;5062331;28;20867;-45
2021/12/31 04:11:48;;;;;;;5.73;1.60;;;14.00;99.90;;;;;;5070150;28;20223;-44
2021/12/31 04:14:14;;;;;;;2.70;1.80;;;14.00;99.90;;;;;;5069604;28;20596;-45
2021/12/31 04:16:40;;;;;;;2.30;1.70;;;14.00;99.90;;;;;;5070036;28;20544;-44
2021/12/31 04:19:05;;;;;;;1.93;1.83;;;14.00;99.90;;;;;;5079606;28;20195;-43
2021/12/31 04:21:31;;;;;;;1.53;1.43;;;14.00;99.90;;;;;;5090277;28;20184;-47
2021/12/31 04:26:55;;;;;;;5.33;1.50;;;14.00;99.90;;;;;;5035436;28;20431;-43
2021/12/31 04:29:22;;;;;;;2.40;1.93;;;14.00;99.90;;;;;;5069374;28;20447;-43
2021/12/31 04:31:47;;;;;;;2.80;1.77;;;14.00;99.90;;;;;;5069657;28;21046;-44
2021/12/31 04:34:13;;;;;;;2.90;1.80;;;14.00;99.90;;;;;;5068992;28;20511;-46
2021/12/31 04:36:39;;;;;;;3.03;1.90;;;14.00;99.90;;;;;;5069513;28;20959;-43
2021/12/31 04:39:05;;;;;;;2.20;1.67;;;14.00;99.90;;;;;;5058166;28;20444;-44
2021/12/31 04:41:31;;;;;;;2.10;1.90;;;13.90;99.90;;;;;;5072101;28;20192;-44
2021/12/31 04:43:56;;;;;;;1.60;1.50;;;13.90;99.90;;;;;;5068435;28;20697;-43
2021/12/31 04:46:22;;;;;;;4.00;1.93;;;13.90;99.90;;;;;;5069410;28;20188;-46
2021/12/31 04:48:48;;;;;;;1.90;1.60;;;13.90;99.90;;;;;;5067876;28;20193;-46
2021/12/31 04:51:13;;;;;;;2.40;1.70;;;14.00;99.90;;;;;;5069368;28;20195;-44
2021/12/31 04:53:39;;;;;;;6.13;1.67;;;13.90;99.90;;;;;;5063045;28;20668;-43
2021/12/31 04:56:05;;;;;;;2.50;1.77;;;14.00;99.90;;;;;;5060703;28;20215;-43
2021/12/31 04:58:30;;;;;;;2.33;1.80;;;13.90;99.90;;;;;;5069385;28;20246;-43
2021/12/31 05:00:56;;;;;;;2.80;1.40;;;13.90;99.90;;;;;;5069005;28;20826;-45
2021/12/31 05:03:22;;;;;;;6.30;2.33;;;13.90;99.90;;;;;;5066879;28;20789;-49
2021/12/31 05:05:47;;;;;;;1.60;1.40;;;13.80;99.90;;;;;;5068905;28;20646;-43
2021/12/31 05:08:13;;;;;;;2.93;2.00;;;13.80;99.90;;;;;;5067859;28;20234;-44
2021/12/31 05:10:38;;;;;;;3.90;1.77;;;13.90;99.90;;;;;;5056629;28;20268;-44
2021/12/31 05:13:05;;;;;;;4.47;1.80;;;13.80;99.90;;;;;;5068343;28;20586;-45
2021/12/31 05:15:37;;;;;;;1.70;1.43;;;13.90;99.90;;;;;;5068112;28;20220;-45
2021/12/31 05:18:03;;;;;;;3.50;1.60;;;13.80;99.90;;;;;;5078237;28;20864;-44
2021/12/31 05:20:29;;;;;;;5.53;1.80;;;13.80;99.90;;;;;;5068749;28;20423;-44
2021/12/31 05:22:57;;;;;;;3.10;1.57;;;13.80;99.90;;;;;;5067813;28;20774;-44
2021/12/31 05:25:23;;;;;;;2.07;1.60;;;13.80;99.90;;;;;;5059290;28;20275;-43
2021/12/31 05:27:49;;;;;;;3.30;1.70;;;13.80;99.90;;;;;;5068271;28;20993;-47
2021/12/31 05:30:15;;;;;;;2.00;1.77;;;13.80;99.90;;;;;;5068725;28;20518;-46
2021/12/31 05:32:40;;;;;;;5.10;1.57;;;13.80;99.90;;;;;;5067942;28;20522;-44
2021/12/31 05:35:07;;;;;;;3.60;1.43;;;13.70;99.90;;;;;;5068095;28;20586;-43
2021/12/31 05:37:32;;;;;;;1.83;1.37;;;13.80;99.90;;;;;;5068410;28;20189;-43
2021/12/31 05:39:58;;;;;;;3.20;1.77;;;13.80;99.90;;;;;;5076140;28;20429;-43
2021/12/31 05:42:24;;;;;;;4.10;1.67;;;13.80;99.90;;;;;;5061172;28;20213;-44
2021/12/31 05:44:49;;;;;;;1.30;1.20;;;13.70;99.90;;;;;;5067426;28;20198;-45
2021/12/31 05:47:15;;;;;;;3.80;1.40;;;13.70;99.90;;;;;;5067839;28;20573;-46
2021/12/31 05:49:41;;;;;;;2.03;1.40;;;13.70;99.90;;;;;;5067103;28;20189;-44
2021/12/31 05:52:07;;;;;;;3.40;2.50;;;13.80;99.90;;;;;;5069742;28;20267;-43
2021/12/31 05:54:33;;;;;;;1.63;1.50;;;13.70;99.90;;;;;;5069312;28;20192;-43
2021/12/31 05:56:58;;;;;;;3.43;1.43;;;13.70;99.90;;;;;;5064963;28;20504;-44
2021/12/31 05:59:24;;;;;;;2.63;1.73;;;13.80;99.90;;;;;;5067226;28;20193;-44
2021/12/31 06:01:50;;;;;;;3.13;1.50;;;13.80;99.90;;;;;;5062303;28;20679;-44
2021/12/31 06:04:16;;;;;;;3.27;1.67;;;13.80;99.90;;;;;;5066813;28;20525;-45
2021/12/31 06:06:43;;;;;;;2.27;1.27;;;13.80;99.90;;;;;;5067997;28;20197;-45
2021/12/31 06:09:11;;;;;;;4.33;1.77;;;13.70;99.90;;;;;;5061450;28;20432;-44
2021/12/31 06:11:38;;;;;;;2.37;1.50;;;13.80;99.90;;;;;;5063260;28;20454;-43
2021/12/31 06:14:05;;;;;;;1.57;1.47;;;13.80;99.90;;;;;;5066679;28;20426;-43
2021/12/31 06:16:38;;;;;;;2.40;1.80;;;13.80;99.90;;;;;;5067449;28;20423;-44
2021/12/31 06:19:05;;;;;;;2.87;1.67;;;13.80;99.90;;;;;;5077024;28;20418;-43
2021/12/31 06:21:35;;;;;;;2.20;1.20;;;13.70;99.90;;;;;;5070326;28;20435;-43
2021/12/31 06:24:01;;;;;;;3.13;1.53;;;13.70;99.90;;;;;;5061002;28;20499;-43
2021/12/31 06:26:27;;;;;;;3.13;1.87;;;13.80;99.90;;;;;;5065736;28;20433;-44
2021/12/31 06:28:52;;;;;;;2.97;1.73;;;13.80;99.90;;;;;;5067368;28;20422;-44
2021/12/31 06:31:18;;;;;;;2.60;1.70;;;13.70;99.90;;;;;;5067405;28;20192;-47
2021/12/31 06:33:44;;;;;;;1.60;1.50;;;13.80;99.90;;;;;;5077459;28;20198;-43
2021/12/31 06:36:09;;;;;;;3.33;1.60;;;13.80;99.90;;;;;;5087441;28;20269;-43
2021/12/31 06:38:35;;;;;;;3.90;1.50;;;13.70;99.90;;;;;;5086443;28;20210;-44
2021/12/31 06:41:01;;;;;;;6.73;1.97;;;13.70;99.90;;;;;;5053421;28;20201;-44
2021/12/31 06:43:27;;;;;;;1.53;1.20;;;13.80;99.90;;;;;;5066188;28;20491;-44
2021/12/31 06:45:52;;;;;;;1.60;1.30;;;13.80;99.90;;;;;;5063020;28;20550;-45
2021/12/31 06:48:18;;;;;;;2.13;1.50;;;13.80;99.90;;;;;;5067168;28;20667;-43
2021/12/31 06:50:44;;;;;;;4.33;1.80;;;13.80;99.90;;;;;;5067211;28;20208;-44
2021/12/31 06:53:09;;;;;;;4.23;1.70;;;13.80;99.90;;;;;;5066932;28;20652;-48
2021/12/31 06:55:35;;;;;;;3.10;1.77;;;13.70;99.90;;;;;;5057082;28;20189;-43
2021/12/31 06:58:01;;;;;;;1.63;1.40;;;13.70;99.90;;;;;;5066779;28;20691;-43
2021/12/31 07:00:27;;;;;;;2.70;1.73;;;13.70;99.90;;;;;;5065685;28;20842;-45
2021/12/31 07:03:13;;;;;;;1.50;1.40;;;13.60;99.90;;;;;;5069125;28;20216;-45
2021/12/31 07:05:43;;;;;;;1.90;1.70;;;13.60;99.90;;;;;;5066469;28;20415;-44
2021/12/31 07:08:10;;;;;;;2.10;1.80;;;13.60;99.90;;;;;;5067097;28;20431;-45
2021/12/31 07:10:36;;;;;;;1.53;1.43;;;13.60;99.90;;;;;;5057269;28;20419;-43
2021/12/31 07:13:10;;;;;;;1.70;1.60;;;13.60;99.90;;;;;;5066422;28;20419;-45
2021/12/31 07:15:44;;;;;;;4.43;2.23;;;13.50;99.90;;;;;;5054741;28;20485;-43
2021/12/31 07:18:10;;;;;;;2.43;2.00;;;13.60;99.90;;;;;;5069108;28;20440;-44
2021/12/31 07:20:37;;;;;;;3.43;1.60;;;13.50;99.90;;;;;;5087134;28;20482;-43
2021/12/31 07:23:04;;;;;;;3.70;2.00;;;13.50;99.90;;;;;;5085816;28;20462;-46
2021/12/31 07:25:31;;;;;;;2.60;1.83;;;13.50;99.90;;;;;;5069231;28;20470;-46
2021/12/31 07:27:56;;;;;;;2.13;1.80;;;13.50;99.90;;;;;;5066894;28;20411;-44
2021/12/31 07:30:22;;;;;;;2.50;2.00;;;13.40;99.90;;;;;;5066948;28;20854;-43
2021/12/31 07:32:48;;;;;;;2.33;1.83;;;13.50;99.90;;;;;;5081625;28;20793;-46
2021/12/31 07:35:13;;;;;;;5.00;2.10;;;13.40;99.90;;;;;;5066887;28;20323;-44
2021/12/31 07:37:39;;;;;;;3.57;2.10;;;13.40;99.90;;;;;;5066589;28;20242;-43
2021/12/31 07:40:06;;;;;;;4.03;2.33;;;13.40;99.90;;;;;;5056002;28;20197;-45
2021/12/31 07:42:32;;;;;;;4.23;2.43;;;13.40;99.90;;;;;;5061752;28;20783;-44
2021/12/31 07:44:58;;;;;;;3.90;1.90;;;13.30;99.90;;;;;;5065972;28;20415;-45
2021/12/31 07:47:24;;;;;;;1.80;1.63;;;13.40;99.90;;;;;;5066565;28;20189;-43
2021/12/31 07:49:49;;;;;;;1.87;1.67;;;13.30;99.90;;;;;;5066714;28;20235;-43
2021/12/31 07:52:15;;;;;;;2.87;2.00;;;13.40;99.90;;;;;;5066098;28;20213;-43
2021/12/31 07:54:40;;;;;;;3.57;2.17;;;13.40;99.90;;;;;;5059651;28;20224;-45
2021/12/31 07:57:06;;;;;;;4.57;2.40;;;13.40;99.90;;;;;;5062734;28;20574;-43
2021/12/31 07:59:32;;;;;;;2.63;2.00;;;13.30;99.90;;;;;;5066498;28;20754;-44
2021/12/31 08:01:57;;;;;;;4.53;2.10;;;13.30;99.90;;;;;;5082444;28;20267;-43
2021/12/31 08:04:23;;;;;;;4.23;2.40;;;13.30;99.90;;;;;;5065710;28;20205;-44
2021/12/31 08:06:50;;;;;;;5.53;2.83;;;13.40;99.90;;;;;;5066209;28;20192;-45
2021/12/31 08:09:15;;;;;;;3.63;1.97;;;13.30;99.90;;;;;;5065568;28;20251;-45
2021/12/31 08:11:41;;;;;;;2.40;2.20;;;13.30;99.90;;;;;;5054722;28;20802;-45
2021/12/31 08:14:07;;;;;;;2.70;2.10;;;13.30;99.90;;;;;;5067654;28;20185;-46
2021/12/31 08:16:33;;;;;;;2.80;2.20;;;13.30;99.90;;;;;;5070935;28;20247;-44
2021/12/31 08:18:58;;;;;;;2.93;2.40;;;13.30;99.90;;;;;;5068652;28;20231;-46
2021/12/31 08:21:24;;;;;;;3.20;2.20;;;13.30;99.90;;;;;;5069491;28;20185;-44
2021/12/31 08:23:50;;;;;;;4.27;2.07;;;13.30;99.90;;;;;;5069410;28;20204;-43
2021/12/31 08:26:16;;;;;;;1.73;1.60;;;13.30;99.90;;;;;;5062882;28;20197;-43
2021/12/31 08:28:42;;;;;;;3.53;1.90;;;13.40;99.90;;;;;;5070018;28;20203;-44
2021/12/31 08:31:07;;;;;;;2.37;1.93;;;13.40;99.90;;;;;;5069467;28;20934;-43
2021/12/31 08:33:33;;;;;;;2.77;2.33;;;13.40;99.90;;;;;;5069122;28;20287;-44
2021/12/31 08:35:59;;;;;;;2.30;1.90;;;13.40;99.90;;;;;;5069104;28;20250;-43
2021/12/31 08:38:25;;;;;;;3.17;1.97;;;13.40;99.90;;;;;;5067043;28;20718;-47
2021/12/31 08:40:51;;;;;;;2.97;2.07;;;13.40;99.90;;;;;;5062856;28;20195;-45
2021/12/31 08:43:17;;;;;;;4.07;2.30;;;13.40;99.90;;;;;;5067951;28;20463;-44
2021/12/31 08:45:43;;;;;;;3.37;2.30;;;13.40;99.90;;;;;;5070700;28;20956;-43
2021/12/31 08:48:08;;;;;;;3.07;2.23;;;13.40;99.90;;;;;;5068576;28;20458;-45
2021/12/31 08:50:34;;;;;;;1.83;1.73;;;13.30;99.90;;;;;;5068633;28;20192;-43
2021/12/31 08:53:00;;;;;;;2.00;1.80;;;13.40;99.90;;;;;;5068845;28;20413;-44
2021/12/31 08:55:26;;;;;;;1.93;1.83;;;13.40;99.90;;;;;;5063147;28;20516;-44
2021/12/31 08:57:52;;;;;;;2.90;1.87;;;13.30;99.90;;;;;;5065453;28;20435;-44
2021/12/31 09:00:18;;;;;;;4.40;2.17;;;13.40;99.90;;;;;;5069333;28;20628;-45
2021/12/31 09:02:46;;;;;;;2.40;2.10;;;13.40;99.90;;;;;;5068382;28;20659;-43
2021/12/31 09:05:12;;;;;;;1.83;1.73;;;13.50;99.90;;;;;;5067750;28;21029;-45
2021/12/31 09:07:38;;;;;;;2.83;2.00;;;13.50;99.90;;;;;;5066763;28;20469;-46
2021/12/31 09:10:05;;;;;;;2.77;2.17;;;13.40;99.90;;;;;;5066169;28;20432;-46
2021/12/31 09:12:30;;;;;;;3.10;2.30;;;13.40;99.90;;;;;;5061882;28;20316;-44
2021/12/31 09:14:56;;;;;;;2.13;1.90;;;13.40;99.90;;;;;;5068221;28;20415;-46
2021/12/31 09:17:25;;;;;;;4.23;2.20;;;13.40;99.90;;;;;;5068689;28;20209;-46
2021/12/31 09:19:51;;;;;;;2.30;2.10;;;13.40;99.90;;;;;;5074172;28;20196;-47
2021/12/31 09:22:17;;;;;;;1.70;1.60;;;13.40;99.90;;;;;;5088965;28;20785;-44
2021/12/31 09:24:43;;;;;;;3.37;2.00;;;13.40;99.90;;;;;;5082232;28;20864;-46
2021/12/31 09:27:09;;;;;;;3.90;1.97;;;13.50;99.90;;;;;;5057256;28;20538;-44
2021/12/31 09:29:35;;;;;;;3.10;2.00;;;13.50;99.90;;;;;;5068532;28;20272;-47
2021/12/31 09:32:00;;;;;;;2.77;2.00;;;13.50;99.90;;;;;;5059130;28;20956;-46
2021/12/31 09:34:26;;;;;;;1.63;1.53;;;13.50;99.90;;;;;;5067404;28;20695;-44
2021/12/31 09:36:52;;;;;;;2.97;1.40;;;13.50;99.90;;;;;;5068609;28;20426;-45
2021/12/31 09:39:17;;;;;;;3.97;2.40;;;13.50;99.90;;;;;;5066677;28;20299;-44
2021/12/31 09:41:44;;;;;;;2.63;2.00;;;13.50;99.90;;;;;;5062962;28;20276;-44
2021/12/31 09:44:14;;;;;;;2.07;1.63;;;13.60;99.90;;;;;;5068117;28;20211;-45
2021/12/31 09:46:40;;;;;;;2.47;2.00;;;13.70;99.90;;;;;;5068142;28;20416;-44
2021/12/31 09:49:06;;;;;;;2.10;1.73;;;13.80;99.90;;;;;;5070995;28;21241;-44
2021/12/31 09:51:33;;;;;;;2.07;1.80;;;13.80;99.90;;;;;;5086409;28;20427;-46
2021/12/31 09:53:59;;;;;;;1.80;1.70;;;13.90;99.90;;;;;;5067174;28;20181;-46
2021/12/31 09:56:29;;;;;;;1.73;1.63;;;13.90;99.90;;;;;;5056299;28;20778;-44
2021/12/31 09:58:55;;;;;;;4.30;1.77;;;13.90;99.90;;;;;;5065174;28;20541;-44
2021/12/31 10:01:21;;;;;;;2.23;1.80;;;13.80;99.90;;;;;;5068060;28;20506;-45
2021/12/31 10:03:56;;;;;;;2.97;1.97;;;13.80;99.90;;;;;;5067268;28;20217;-47
2021/12/31 10:06:21;;;;;;;2.80;1.80;;;13.70;99.90;;;;;;5068152;28;20584;-44
2021/12/31 10:08:48;;;;;;;2.00;1.80;;;13.70;99.90;;;;;;5068189;28;20415;-49
2021/12/31 10:11:26;;;;;;;3.70;2.40;;;13.70;99.90;;;;;;5054284;28;20432;-44
2021/12/31 10:13:51;;;;;;;1.77;1.60;;;13.70;99.90;;;;;;5068821;28;20860;-48
2021/12/31 10:16:25;;;;;;;3.90;1.90;;;13.70;99.90;;;;;;5066752;28;20426;-43
2021/12/31 10:19:10;;;;;;;2.50;1.90;;;13.70;99.90;;;;;;5065313;28;20562;-43
2021/12/31 10:21:44;;;;;;;2.60;1.87;;;13.70;99.90;;;;;;5060700;28;20454;-43
2021/12/31 10:24:32;;;;;;;2.17;1.97;;;13.70;99.90;;;;;;5065722;28;20553;-45
2021/12/31 10:27:14;;;;;;;2.53;2.33;;;13.70;99.90;;;;;;5060603;28;20554;-44
2021/12/31 10:29:58;;;;;;;2.10;2.00;;;13.80;99.90;;;;;;5066478;28;20925;-45
2021/12/31 10:32:28;;;;;;;1.80;1.60;;;14.00;99.90;;;;;;5066434;28;20399;-44
2021/12/31 10:35:11;;;;;;;2.63;1.70;;;14.20;99.90;;;;;;5065995;28;20494;-44
2021/12/31 10:37:57;;;;;;;2.97;1.57;;;14.20;99.90;;;;;;5082263;28;20456;-47
2021/12/31 10:40:40;;;;;;;2.40;1.83;;;14.30;99.90;;;;;;5065524;28;20470;-51
2021/12/31 10:43:25;;;;;;;2.07;1.77;;;14.20;99.90;;;;;;5058595;28;20482;-43
2021/12/31 10:46:03;;;;;;;2.00;1.60;;;14.10;99.90;;;;;;5066899;28;20544;-43
2021/12/31 10:48:50;;;;;;;3.90;2.10;;;14.00;99.90;;;;;;5067369;28;20422;-44
2021/12/31 10:51:18;;;;;;;3.93;1.90;;;14.00;99.90;;;;;;5066972;28;20918;-43
2021/12/31 10:53:51;;;;;;;2.60;1.60;;;14.00;99.90;;;;;;5064275;28;20427;-48
2021/12/31 10:56:17;;;;;;;4.33;2.37;;;14.00;99.90;;;;;;5066771;28;20825;-44
2021/12/31 10:58:56;;;;;;;3.30;2.03;;;13.90;99.90;;;;;;5064346;28;20435;-44
2021/12/31 11:01:22;;;;;;;1.93;1.80;;;13.90;99.90;;;;;;5065956;28;20411;-44
2021/12/31 11:03:49;;;;;;;3.00;1.83;;;13.80;99.90;;;;;;5065666;28;21078;-43
2021/12/31 11:06:16;;;;;;;1.73;1.63;;;13.80;99.90;;;;;;5066786;28;20795;-44
2021/12/31 11:08:45;;;;;;;1.90;1.80;;;13.80;99.90;;;;;;5066201;28;20469;-43
2021/12/31 11:11:13;;;;;;;2.40;1.83;;;13.80;99.90;;;;;;5060976;28;20424;-43
2021/12/31 11:13:40;;;;;;;2.40;1.90;;;13.90;99.90;;;;;;5060342;28;20418;-47
2021/12/31 11:16:05;;;;;;;1.90;1.60;;;13.80;99.90;;;;;;5067278;28;20416;-43
2021/12/31 11:18:31;;;;;;;2.43;1.90;;;13.80;99.90;;;;;;5071096;28;20785;-44
2021/12/31 11:21:00;;;;;;;2.23;1.70;;;13.80;99.90;;;;;;5082738;28;20192;-48
2021/12/31 11:23:29;;;;;;;1.97;1.87;;;13.80;99.90;;;;;;5086062;28;20243;-44
2021/12/31 11:26:08;;;;;;;1.80;1.60;;;13.70;99.90;;;;;;5059332;28;20748;-48
2021/12/31 11:28:39;;;;;;;2.30;2.10;;;13.70;99.90;;;;;;5059395;28;20416;-45
2021/12/31 11:31:21;;;;;;;3.60;1.60;;;13.70;99.90;;;;;;5066765;28;20764;-45
2021/12/31 11:34:11;;;;;;;3.00;2.13;;;13.70;99.90;;;;;;5066181;28;20426;-45
2021/12/31 11:36:48;;;;;;;2.00;1.90;;;13.60;99.90;;;;;;5066690;28;20514;-46
2021/12/31 11:39:36;;;;;;;1.80;1.60;;;13.70;99.90;;;;;;5080490;28;20761;-47
2021/12/31 11:42:04;;;;;;;1.80;1.70;;;13.60;99.90;;;;;;5068267;28;20462;-44
2021/12/31 11:44:31;;;;;;;1.63;1.53;;;13.50;99.90;;;;;;5065622;28;21070;-46
2021/12/31 11:47:17;;;;;;;1.93;1.73;;;13.60;99.90;;;;;;5067530;28;20929;-45
2021/12/31 11:49:46;;;;;;;3.17;2.10;;;13.60;99.90;;;;;;5069420;28;20438;-47
2021/12/31 11:52:23;;;;;;;1.87;1.70;;;13.60;99.90;;;;;;5070187;28;20435;-46
2021/12/31 11:55:22;;;;;;;2.53;2.10;;;13.70;99.90;;;;;;5069203;28;20434;-44
2021/12/31 11:57:49;;;;;;;2.80;1.97;;;13.60;99.90;;;;;;5060817;28;20812;-45
2021/12/31 12:00:27;;;;;;;2.83;2.20;;;13.60;99.90;;;;;;5069605;28;20471;-43
2021/12/31 12:02:53;;;;;;;3.23;2.00;;;13.70;99.90;;;;;;5069686;28;21126;-48
2021/12/31 12:05:22;;;;;;;3.10;1.50;;;13.70;99.90;;;;;;5069862;28;20454;-48
2021/12/31 12:07:51;;;;;;;3.00;1.60;;;13.80;99.90;;;;;;5070354;28;20454;-47
2021/12/31 12:10:24;;;;;;;2.40;1.83;;;13.80;99.90;;;;;;5069854;28;20469;-45
2021/12/31 12:12:53;;;;;;;2.80;1.73;;;14.20;99.90;;;;;;5055032;28;20428;-46
2021/12/31 12:15:18;;;;;;;3.93;1.60;;;14.60;99.90;;;;;;5068577;28;20427;-46
2021/12/31 12:17:45;;;;;;;2.43;1.70;;;14.60;99.90;;;;;;5070137;28;20419;-48
2021/12/31 12:20:13;;;;;;;3.77;1.63;;;14.50;99.90;;;;;;5088359;28;20192;-45
2021/12/31 12:22:55;;;;;;;2.77;1.83;;;14.40;99.90;;;;;;5090094;28;20431;-48
2021/12/31 12:25:25;;;;;;;2.60;1.70;;;14.60;99.90;;;;;;5073202;28;20420;-45
2021/12/31 12:28:09;;;;;;;3.37;1.77;;;14.80;99.90;;;;;;5052761;28;20946;-46
2021/12/31 12:30:44;;;;;;;1.93;1.53;;;14.70;99.90;;;;;;5069139;28;20476;-46
2021/12/31 12:35:38;;;;;;;2.33;1.87;;;14.40;99.90;;;;;;5069504;28;20769;-47
2021/12/31 12:38:19;;;;;;;2.80;1.63;;;14.40;99.90;;;;;;5068378;28;20812;-46
2021/12/31 12:40:58;;;;;;;2.13;1.93;;;14.40;99.90;;;;;;5069601;28;20438;-48
2021/12/31 12:43:30;;;;;;;1.77;1.67;;;14.30;99.90;;;;;;5061202;28;21169;-44
2021/12/31 12:46:07;;;;;;;2.37;2.00;;;14.30;99.90;;;;;;5068978;28;20867;-44
2021/12/31 12:48:36;;;;;;;3.67;3.33;;;14.30;99.90;;;;;;5069537;28;20423;-45
2021/12/31 12:51:07;;;;;;;1.77;1.63;;;14.20;99.90;;;;;;5069357;28;20459;-44
2021/12/31 12:53:35;;;;;;;2.13;1.43;;;14.20;99.90;;;;;;5068790;28;20427;-44
2021/12/31 12:56:02;;;;;;;2.10;1.70;;;14.20;99.90;;;;;;5069592;28;20500;-44
2021/12/31 12:58:28;;;;;;;2.13;1.93;;;14.20;99.90;;;;;;5055999;28;20447;-44
2021/12/31 13:01:02;;;;;;;2.20;1.80;;;14.20;99.90;;;;;;5069204;28;20415;-44